createdAt,value
2017-11-12T00:00:41.581Z,18.73
2017-11-12T00:03:09.114Z,20.90
2017-11-12T00:05:37.452Z,28.20
2017-11-12T00:08:04.985Z,19.33
2017-11-12T00:10:32.543Z,23.80
2017-11-12T00:13:00.073Z,27.97
2017-11-12T00:15:28.400Z,22.93
2017-11-12T00:17:55.936Z,23.30
2017-11-12T00:20:23.492Z,21.23
2017-11-12T00:22:51.024Z,18.70
2017-11-12T00:25:19.427Z,20.80
2017-11-12T00:27:46.960Z,20.43
2017-11-12T00:30:14.501Z,15.80
2017-11-12T00:32:42.073Z,18.70
2017-11-12T00:35:09.596Z,17.70
2017-11-12T00:37:37.154Z,15.73
2017-11-12T00:40:05.461Z,18.90
2017-11-12T00:42:33.028Z,23.40
2017-11-12T00:45:00.563Z,19.10
2017-11-12T00:47:28.119Z,21.17
2017-11-12T00:49:55.655Z,27.63
2017-11-12T00:52:23.207Z,22.17
2017-11-12T00:54:50.745Z,15.90
2017-11-12T00:57:19.073Z,22.23
2017-11-12T00:59:46.608Z,14.37
2017-11-12T01:02:14.161Z,16.43
2017-11-12T01:04:41.692Z,19.03
2017-11-12T01:07:10.020Z,15.57
2017-11-12T01:09:37.551Z,16.00
2017-11-12T01:12:05.106Z,14.77
2017-11-12T01:14:32.643Z,15.63
2017-11-12T01:17:00.204Z,16.50
2017-11-12T01:19:27.746Z,19.30
2017-11-12T01:21:55.307Z,15.57
2017-11-12T01:24:22.844Z,14.00
2017-11-12T01:26:50.399Z,13.03
2017-11-12T01:29:17.933Z,15.20
2017-11-12T01:31:45.493Z,12.43
2017-11-12T01:34:13.028Z,11.23
2017-11-12T01:36:41.353Z,10.10
2017-11-12T01:39:08.887Z,10.23
2017-11-12T01:41:36.449Z,13.53
2017-11-12T01:44:03.975Z,10.20
2017-11-12T01:46:31.532Z,11.43
2017-11-12T01:48:59.067Z,11.90
2017-11-12T01:51:26.617Z,11.70
2017-11-12T01:53:54.149Z,14.93
2017-11-12T01:56:21.712Z,14.13
2017-11-12T01:58:49.251Z,12.77
2017-11-12T02:01:17.572Z,12.80
2017-11-12T02:03:45.099Z,10.40
2017-11-12T02:06:12.661Z,10.23
2017-11-12T02:08:40.195Z,9.10
2017-11-12T02:11:08.518Z,11.50
2017-11-12T02:13:36.041Z,9.67
2017-11-12T02:16:04.360Z,10.03
2017-11-12T02:18:31.901Z,13.47
2017-11-12T02:20:59.454Z,8.33
2017-11-12T02:23:26.983Z,10.43
2017-11-12T02:25:55.314Z,9.30
2017-11-12T02:28:22.844Z,9.53
2017-11-12T02:30:50.406Z,15.73
2017-11-12T02:33:17.943Z,9.90
2017-11-12T02:35:46.272Z,10.50
2017-11-12T02:38:13.825Z,13.20
2017-11-12T02:40:41.360Z,14.47
2017-11-12T02:43:09.685Z,11.70
2017-11-12T02:45:37.218Z,15.50
2017-11-12T02:48:04.776Z,17.30
2017-11-12T02:50:32.309Z,14.60
2017-11-12T02:53:00.631Z,16.43
2017-11-12T02:55:28.161Z,17.00
2017-11-12T02:57:55.717Z,16.07
2017-11-12T03:00:23.247Z,17.27
2017-11-12T03:02:50.808Z,19.17
2017-11-12T03:05:18.340Z,18.67
2017-11-12T03:07:45.900Z,17.00
2017-11-12T03:10:14.202Z,21.93
2017-11-12T03:12:41.763Z,22.70
2017-11-12T03:21:15.472Z,22.77
2017-11-12T03:23:43.782Z,20.93
2017-11-12T03:26:11.340Z,25.13
2017-11-12T03:28:38.871Z,21.87
2017-11-12T03:31:06.435Z,26.33
2017-11-12T03:33:33.973Z,25.13
2017-11-12T03:36:01.535Z,25.73
2017-11-12T03:38:29.063Z,23.73
2017-11-12T03:40:57.359Z,36.33
2017-11-12T03:43:24.919Z,28.50
2017-11-12T03:45:52.448Z,34.03
2017-11-12T03:48:20.771Z,30.77
2017-11-12T03:50:48.307Z,28.20
2017-11-12T03:53:15.867Z,31.37
2017-11-12T03:55:43.404Z,29.97
2017-11-12T03:58:11.739Z,35.20
2017-11-12T04:00:39.276Z,33.53
2017-11-12T04:03:06.827Z,32.73
2017-11-12T04:05:34.366Z,28.40
2017-11-12T04:08:02.701Z,32.90
2017-11-12T04:10:30.241Z,34.50
2017-11-12T04:12:57.806Z,26.60
2017-11-12T04:15:25.346Z,30.20
2017-11-12T04:17:52.909Z,25.20
2017-11-12T04:20:20.453Z,26.30
2017-11-12T04:22:48.020Z,33.60
2017-11-12T04:25:15.553Z,34.70
2017-11-12T04:27:43.885Z,30.63
2017-11-12T04:30:11.425Z,35.23
2017-11-12T04:32:38.997Z,30.00
2017-11-12T04:35:06.535Z,27.07
2017-11-12T04:37:34.099Z,26.10
2017-11-12T04:40:01.643Z,34.17
2017-11-12T04:42:29.961Z,30.17
2017-11-12T04:44:57.496Z,25.83
2017-11-12T04:47:25.056Z,26.70
2017-11-12T04:49:52.593Z,35.20
2017-11-12T04:52:20.916Z,37.33
2017-11-12T04:57:58.682Z,28.13
2017-11-12T05:00:26.208Z,28.03
2017-11-12T05:02:53.764Z,32.87
2017-11-12T05:05:21.299Z,37.70
2017-11-12T05:07:48.878Z,34.60
2017-11-12T05:10:16.403Z,24.53
2017-11-12T05:12:43.962Z,25.20
2017-11-12T05:15:12.259Z,23.07
2017-11-12T05:17:39.816Z,27.97
2017-11-12T05:20:13.387Z,32.87
2017-11-12T05:22:41.716Z,25.30
2017-11-12T05:25:09.254Z,27.43
2017-11-12T05:27:36.807Z,25.77
2017-11-12T05:30:04.337Z,32.37
2017-11-12T05:32:32.670Z,30.33
2017-11-12T05:35:13.225Z,24.30
2017-11-12T05:37:40.779Z,25.13
2017-11-12T05:40:08.312Z,19.80
2017-11-12T05:42:36.632Z,16.50
2017-11-12T05:48:08.456Z,24.97
2017-11-12T05:50:36.764Z,20.83
2017-11-12T05:53:04.320Z,27.87
2017-11-12T05:55:31.852Z,36.90
2017-11-12T05:58:00.179Z,39.80
2017-11-12T06:00:27.717Z,29.77
2017-11-12T06:02:55.280Z,26.37
2017-11-12T06:05:22.803Z,26.40
2017-11-12T06:07:50.360Z,33.50
2017-11-12T06:10:17.896Z,31.50
2017-11-12T06:12:45.462Z,32.13
2017-11-12T06:15:12.994Z,27.33
2017-11-12T06:17:40.548Z,22.43
2017-11-12T06:20:08.085Z,27.73
2017-11-12T06:22:36.408Z,28.90
2017-11-12T06:25:03.949Z,31.90
2017-11-12T06:27:31.508Z,33.80
2017-11-12T06:29:59.043Z,30.40
2017-11-12T06:32:26.620Z,164.10
2017-11-12T06:34:54.164Z,167.10
2017-11-12T06:37:21.732Z,345.30
2017-11-12T06:39:49.264Z,166.83
2017-11-12T06:42:17.613Z,272.03
2017-11-12T06:44:45.161Z,126.30
2017-11-12T06:47:12.715Z,33.40
2017-11-12T06:49:40.244Z,18.90
2017-11-12T06:52:07.801Z,27.27
2017-11-12T06:54:35.340Z,24.43
2017-11-12T06:57:03.672Z,24.10
2017-11-12T06:59:31.199Z,26.03
2017-11-12T07:01:58.775Z,31.80
2017-11-12T07:04:26.920Z,33.03
2017-11-12T07:06:55.423Z,26.30
2017-11-12T07:09:23.739Z,41.77
2017-11-12T07:11:51.284Z,28.03
2017-11-12T07:14:18.853Z,37.07
2017-11-12T07:16:46.383Z,23.70
2017-11-12T07:19:13.941Z,23.60
2017-11-12T07:21:41.505Z,34.47
2017-11-12T07:24:09.196Z,55.37
2017-11-12T07:26:36.740Z,48.90
2017-11-12T07:29:04.297Z,33.83
2017-11-12T07:31:31.823Z,48.33
2017-11-12T07:34:00.149Z,32.37
2017-11-12T07:36:27.792Z,27.43
2017-11-12T07:38:55.588Z,27.43
2017-11-12T07:41:23.140Z,25.70
2017-11-12T07:43:50.701Z,28.37
2017-11-12T07:46:18.232Z,28.20
2017-11-12T07:48:45.783Z,21.03
2017-11-12T07:51:13.317Z,24.83
2017-11-12T07:53:41.653Z,23.10
2017-11-12T07:56:09.179Z,18.97
2017-11-12T07:58:36.741Z,15.30
2017-11-12T08:01:04.277Z,18.97
2017-11-12T08:03:32.603Z,17.13
2017-11-12T08:06:00.139Z,20.73
2017-11-12T08:08:27.699Z,19.47
2017-11-12T08:10:55.236Z,20.13
2017-11-12T08:13:23.560Z,18.57
2017-11-12T08:15:51.091Z,16.40
2017-11-12T08:18:18.644Z,16.43
2017-11-12T08:20:46.180Z,16.63
2017-11-12T08:23:14.512Z,18.17
2017-11-12T08:25:42.044Z,18.30
2017-11-12T08:28:09.606Z,17.37
2017-11-12T08:30:37.151Z,21.93
2017-11-12T08:33:05.476Z,21.70
2017-11-12T08:35:33.012Z,17.90
2017-11-12T08:38:00.584Z,19.53
2017-11-12T08:40:28.122Z,20.57
2017-11-12T08:42:55.681Z,18.30
2017-11-12T08:45:23.220Z,15.30
2017-11-12T08:47:51.549Z,18.63
2017-11-12T08:50:20.981Z,29.23
2017-11-12T08:52:48.540Z,23.60
2017-11-12T08:55:16.074Z,12.03
2017-11-12T08:57:43.624Z,24.40
2017-11-12T09:00:11.155Z,37.70
2017-11-12T09:02:39.472Z,10.27
2017-11-12T09:05:07.001Z,10.67
2017-11-12T09:07:34.559Z,10.43
2017-11-12T09:10:02.084Z,8.90
2017-11-12T09:12:30.396Z,26.10
2017-11-12T09:14:57.955Z,9.70
2017-11-12T09:17:25.492Z,22.43
2017-11-12T09:19:53.818Z,13.10
2017-11-12T09:22:21.350Z,7.80
2017-11-12T09:24:48.901Z,6.80
2017-11-12T09:27:17.195Z,7.93
2017-11-12T09:29:44.746Z,8.90
2017-11-12T09:32:12.285Z,8.50
2017-11-12T09:34:40.608Z,5.37
2017-11-12T09:37:08.127Z,5.70
2017-11-12T09:39:36.445Z,3.50
2017-11-12T09:42:03.984Z,42.50
2017-11-12T09:44:31.545Z,130.90
2017-11-12T09:46:59.072Z,3.23
2017-11-12T09:49:27.394Z,2.40
2017-11-12T09:51:54.928Z,4.50
2017-11-12T09:54:22.492Z,7.27
2017-11-12T09:56:50.030Z,4.97
2017-11-12T09:59:18.371Z,4.10
2017-11-12T10:01:45.917Z,3.80
2017-11-12T10:04:13.488Z,3.80
2017-11-12T10:06:41.013Z,3.27
2017-11-12T10:09:08.561Z,3.80
2017-11-12T10:11:36.883Z,5.10
2017-11-12T10:14:04.413Z,4.80
2017-11-12T10:16:31.973Z,5.73
2017-11-12T10:18:59.509Z,3.30
2017-11-12T10:21:27.839Z,3.30
2017-11-12T10:23:55.360Z,3.30
2017-11-12T10:26:22.903Z,3.73
2017-11-12T10:28:51.201Z,5.10
2017-11-12T10:31:18.756Z,4.97
2017-11-12T10:33:46.285Z,5.13
2017-11-12T10:36:13.839Z,7.80
2017-11-12T10:38:41.369Z,7.57
2017-11-12T10:41:08.929Z,12.40
2017-11-12T10:43:36.472Z,5.80
2017-11-12T10:46:04.017Z,7.67
2017-11-12T10:48:31.552Z,5.03
2017-11-12T10:50:59.873Z,3.00
2017-11-12T10:53:27.406Z,8.13
2017-11-12T10:55:55.717Z,5.13
2017-11-12T10:58:23.249Z,5.33
2017-11-12T11:00:50.805Z,8.33
2017-11-12T11:03:18.344Z,11.63
2017-11-12T11:05:46.697Z,7.90
2017-11-12T11:08:14.220Z,5.90
2017-11-12T11:10:41.758Z,5.07
2017-11-12T11:13:09.316Z,5.23
2017-11-12T11:15:37.606Z,3.50
2017-11-12T11:18:05.160Z,4.43
2017-11-12T11:20:32.692Z,4.00
2017-11-12T11:23:00.258Z,2.90
2017-11-12T11:25:28.560Z,3.30
2017-11-12T11:27:56.116Z,2.77
2017-11-12T11:30:23.652Z,2.60
2017-11-12T11:32:51.975Z,2.33
2017-11-12T11:35:19.496Z,2.13
2017-11-12T11:37:47.813Z,2.50
2017-11-12T11:40:15.344Z,3.20
2017-11-12T11:42:43.664Z,4.40
2017-11-12T11:45:11.192Z,3.90
2017-11-12T11:47:38.754Z,7.93
2017-11-12T11:50:06.290Z,6.30
2017-11-12T11:52:34.620Z,6.00
2017-11-12T11:55:02.154Z,6.30
2017-11-12T11:57:29.712Z,4.97
2017-11-12T11:59:57.244Z,5.00
2017-11-12T12:02:25.565Z,3.73
2017-11-12T12:04:53.092Z,5.17
2017-11-12T12:07:21.412Z,3.70
2017-11-12T12:09:48.944Z,2.70
2017-11-12T12:12:16.588Z,3.50
2017-11-12T12:14:44.882Z,2.60
2017-11-12T12:17:12.413Z,2.37
2017-11-12T12:19:40.732Z,2.60
2017-11-12T12:22:08.260Z,3.30
2017-11-12T12:24:36.580Z,3.10
2017-11-12T12:27:04.205Z,2.70
2017-11-12T12:29:31.755Z,2.57
2017-11-12T12:32:00.047Z,2.27
2017-11-12T12:34:27.596Z,2.20
2017-11-12T12:36:55.883Z,2.23
2017-11-12T12:39:23.435Z,5.60
2017-11-12T12:41:51.744Z,2.77
2017-11-12T12:44:19.299Z,5.23
2017-11-12T12:46:46.834Z,2.30
2017-11-12T12:49:15.148Z,6.47
2017-11-12T12:51:42.687Z,4.30
2017-11-12T12:54:10.240Z,4.63
2017-11-12T12:56:37.767Z,3.60
2017-11-12T12:59:06.103Z,7.90
2017-11-12T13:01:33.633Z,5.60
2017-11-12T13:04:01.196Z,5.73
2017-11-12T13:06:28.740Z,6.87
2017-11-12T13:08:57.061Z,7.50
2017-11-12T13:11:24.588Z,6.87
2017-11-12T13:13:52.904Z,7.97
2017-11-12T13:16:20.432Z,8.10
2017-11-12T13:18:47.960Z,6.40
2017-11-12T13:21:15.529Z,5.77
2017-11-12T13:23:43.823Z,7.63
2017-11-12T13:26:11.380Z,7.57
2017-11-12T13:28:38.916Z,7.87
2017-11-12T13:31:07.245Z,8.53
2017-11-12T13:33:34.776Z,7.23
2017-11-12T13:36:03.087Z,9.57
2017-11-12T13:38:30.620Z,8.90
2017-11-12T13:40:58.175Z,9.10
2017-11-12T13:43:25.706Z,7.60
2017-11-12T13:45:53.255Z,6.37
2017-11-12T13:48:20.784Z,5.57
2017-11-12T13:50:48.334Z,4.30
2017-11-12T13:53:15.872Z,3.87
2017-11-12T13:55:44.188Z,4.13
2017-11-12T13:58:11.718Z,5.40
2017-11-12T14:00:39.276Z,5.00
2017-11-12T14:03:06.809Z,6.27
2017-11-12T14:05:35.135Z,6.13
2017-11-12T14:08:02.667Z,8.70
2017-11-12T14:10:30.228Z,9.53
2017-11-12T14:12:57.756Z,7.43
2017-11-12T14:15:26.077Z,7.77
2017-11-12T14:17:53.608Z,5.50
2017-11-12T14:20:21.903Z,3.93
2017-11-12T14:22:49.457Z,4.20
2017-11-12T14:25:16.988Z,3.83
2017-11-12T14:27:44.545Z,4.03
2017-11-12T14:30:12.075Z,4.00
2017-11-12T14:32:39.624Z,4.10
2017-11-12T14:35:07.161Z,4.73
2017-11-12T14:37:34.735Z,4.30
2017-11-12T14:40:02.265Z,4.03
2017-11-12T14:42:30.599Z,4.23
2017-11-12T14:44:58.128Z,5.20
2017-11-12T14:47:25.684Z,3.70
2017-11-12T14:49:53.215Z,9.30
2017-11-12T14:52:21.537Z,7.63
2017-11-12T14:54:49.072Z,9.47
2017-11-12T14:57:16.620Z,7.07
2017-11-12T14:59:44.913Z,5.87
2017-11-12T15:02:12.476Z,5.63
2017-11-12T15:04:40.004Z,4.80
2017-11-12T15:07:08.326Z,7.43
2017-11-12T15:09:35.884Z,5.30
2017-11-12T15:12:03.428Z,5.37
2017-11-12T15:14:30.952Z,7.40
2017-11-12T15:16:58.503Z,4.40
2017-11-12T15:19:26.035Z,5.03
2017-11-12T15:21:53.600Z,6.60
2017-11-12T15:24:21.133Z,7.10
2017-11-12T15:26:48.665Z,8.20
2017-11-12T15:29:16.980Z,6.00
2017-11-12T15:31:44.511Z,5.77
2017-11-12T15:34:12.830Z,5.90
2017-11-12T15:36:40.363Z,6.03
2017-11-12T15:39:07.919Z,6.00
2017-11-12T15:41:35.456Z,6.80
2017-11-12T15:44:03.781Z,9.50
2017-11-12T15:46:31.315Z,5.10
2017-11-12T15:48:58.864Z,5.80
2017-11-12T15:51:26.404Z,6.37
2017-11-12T15:53:54.728Z,5.80
2017-11-12T15:56:22.265Z,4.33
2017-11-12T15:58:49.828Z,6.03
2017-11-12T16:01:17.360Z,5.57
2017-11-12T16:03:45.688Z,8.13
2017-11-12T16:06:13.216Z,10.70
2017-11-12T16:08:40.768Z,3.70
2017-11-12T16:11:09.061Z,2.20
2017-11-12T16:13:36.621Z,3.07
2017-11-12T16:16:04.150Z,2.50
2017-11-12T16:18:32.471Z,4.53
2017-11-12T16:21:00.011Z,3.63
2017-11-12T16:23:27.594Z,4.53
2017-11-12T16:25:55.129Z,3.07
2017-11-12T16:28:22.665Z,3.03
2017-11-12T16:30:50.996Z,2.93
2017-11-12T16:33:18.528Z,2.77
2017-11-12T16:35:46.097Z,2.57
2017-11-12T16:38:13.624Z,2.50
2017-11-12T16:40:41.967Z,3.20
2017-11-12T16:43:15.626Z,4.23
2017-11-12T16:45:43.180Z,3.03
2017-11-12T16:48:11.477Z,5.90
2017-11-12T16:50:39.036Z,3.53
2017-11-12T16:53:06.567Z,8.30
2017-11-12T16:55:34.899Z,4.13
2017-11-12T16:58:02.419Z,3.07
2017-11-12T17:00:29.972Z,2.90
2017-11-12T17:02:58.266Z,6.33
2017-11-12T17:05:25.819Z,5.20
2017-11-12T17:07:53.351Z,3.63
2017-11-12T17:10:20.912Z,3.70
2017-11-12T17:12:49.216Z,4.20
2017-11-12T17:15:16.777Z,3.60
2017-11-12T17:17:44.318Z,3.87
2017-11-12T17:20:12.652Z,3.97
2017-11-12T17:22:40.182Z,4.27
2017-11-12T17:25:07.732Z,4.93
2017-11-12T17:27:35.263Z,4.30
2017-11-12T17:30:02.832Z,3.63
2017-11-12T17:32:31.132Z,4.13
2017-11-12T17:34:58.663Z,3.40
2017-11-12T17:37:26.224Z,3.70
2017-11-12T17:39:54.528Z,5.47
2017-11-12T17:42:22.094Z,4.40
2017-11-12T17:44:49.646Z,4.57
2017-11-12T17:47:17.211Z,5.07
2017-11-12T17:49:44.748Z,4.67
2017-11-12T17:52:13.076Z,4.83
2017-11-12T17:54:40.611Z,4.87
2017-11-12T17:57:08.175Z,7.90
2017-11-12T17:59:35.705Z,6.83
2017-11-12T18:02:04.035Z,5.90
2017-11-12T18:04:31.568Z,6.90
2017-11-12T18:06:59.127Z,4.53
2017-11-12T18:09:26.653Z,6.00
2017-11-12T18:11:54.975Z,7.43
2017-11-12T18:14:22.515Z,4.63
2017-11-12T18:16:50.075Z,6.67
2017-11-12T18:19:17.616Z,5.63
2017-11-12T18:21:45.949Z,6.67
2017-11-12T18:24:13.484Z,12.70
2017-11-12T18:26:41.048Z,21.40
2017-11-12T18:29:08.576Z,8.50
2017-11-12T18:31:36.889Z,6.87
2017-11-12T18:34:04.436Z,10.13
2017-11-12T18:36:31.965Z,9.40
2017-11-12T18:39:00.291Z,7.13
2017-11-12T18:41:27.834Z,7.87
2017-11-12T18:43:55.393Z,11.20
2017-11-12T18:46:22.951Z,6.80
2017-11-12T18:48:50.521Z,7.37
2017-11-12T18:51:18.053Z,13.80
2017-11-12T18:53:46.380Z,8.70
2017-11-12T18:56:13.928Z,10.30
2017-11-12T18:58:57.311Z,15.50
2017-11-12T19:01:31.271Z,10.97
2017-11-12T19:03:59.411Z,9.47
2017-11-12T19:06:32.971Z,12.67
2017-11-12T19:09:00.547Z,7.63
2017-11-12T19:11:28.875Z,10.10
2017-11-12T19:13:56.500Z,10.50
2017-11-12T19:16:24.804Z,9.00
2017-11-12T19:21:59.471Z,9.17
2017-11-12T19:24:28.616Z,9.83
2017-11-12T19:27:00.519Z,9.57
2017-11-12T19:29:28.100Z,9.10
2017-11-12T19:31:56.160Z,7.30
2017-11-12T19:34:23.720Z,9.77
2017-11-12T19:36:51.290Z,7.07
2017-11-12T19:39:18.856Z,9.00
2017-11-12T19:41:46.397Z,9.67
2017-11-12T19:44:13.981Z,11.70
2017-11-12T19:46:41.521Z,9.73
2017-11-12T19:49:09.063Z,8.40
2017-11-12T19:51:36.625Z,10.93
2017-11-12T19:54:04.928Z,10.10
2017-11-12T19:56:32.494Z,8.53
2017-11-12T19:59:00.021Z,15.37
2017-11-12T20:01:28.356Z,17.33
2017-11-12T20:03:56.664Z,14.07
2017-11-12T20:06:24.229Z,22.83
2017-11-12T20:08:51.771Z,21.57
2017-11-12T20:11:19.340Z,20.53
2017-11-12T20:13:46.884Z,13.60
2017-11-12T20:16:15.204Z,13.53
2017-11-12T20:18:42.737Z,8.30
2017-11-12T20:21:10.310Z,8.97
2017-11-12T20:23:37.852Z,8.47
2017-11-12T20:26:05.577Z,10.67
2017-11-12T20:31:26.505Z,10.13
2017-11-12T20:33:54.044Z,8.10
2017-11-12T20:36:21.604Z,8.53
2017-11-12T20:38:49.171Z,9.77
2017-11-12T20:41:16.738Z,12.43
2017-11-12T20:43:44.284Z,8.63
2017-11-12T20:46:11.846Z,15.03
2017-11-12T20:48:39.376Z,15.00
2017-11-12T20:51:13.621Z,15.00
2017-11-12T20:53:41.188Z,14.30
2017-11-12T20:56:08.766Z,11.37
2017-11-12T20:58:37.172Z,17.13
2017-11-12T21:50:35.583Z,10.67
2017-11-12T21:53:08.048Z,13.90
2017-11-12T21:55:36.351Z,10.33
2017-11-12T21:58:03.889Z,13.93
2017-11-12T22:00:32.315Z,9.97
2017-11-12T22:02:59.913Z,9.97
2017-11-12T22:05:27.517Z,12.73
2017-11-12T22:07:55.096Z,10.63
2017-11-12T22:10:25.390Z,9.60
2017-11-12T22:12:56.625Z,8.53
2017-11-12T22:15:26.035Z,11.23
2017-11-12T22:17:53.584Z,9.47
2017-11-12T22:20:22.381Z,9.70
2017-11-12T22:22:52.806Z,8.83
2017-11-12T22:25:22.638Z,6.47
2017-11-12T22:27:50.463Z,7.23
2017-11-12T22:51:37.032Z,7.57
2017-11-12T22:54:08.568Z,8.87
2017-11-12T22:56:39.869Z,7.10
2017-11-12T22:59:10.691Z,6.37
2017-11-12T23:01:40.715Z,7.90
2017-11-12T23:04:09.890Z,5.10
2017-11-12T23:06:39.743Z,8.20
2017-11-12T23:09:11.814Z,4.70
2017-11-12T23:11:42.587Z,5.43
2017-11-12T23:14:14.010Z,4.87
2017-11-12T23:16:45.006Z,6.03
2017-11-12T23:19:15.386Z,5.60
2017-11-12T23:21:42.936Z,6.23
2017-11-12T23:24:11.007Z,4.60
2017-11-12T23:26:42.013Z,5.30
2017-11-12T23:29:11.405Z,6.13
2017-11-12T23:31:43.191Z,6.10
2017-11-12T23:34:12.866Z,8.30
2017-11-12T23:36:42.672Z,6.80
2017-11-12T23:39:14.171Z,8.67
2017-11-12T23:41:43.040Z,7.20
2017-11-12T23:44:14.517Z,6.67
2017-11-12T23:46:45.615Z,5.97
2017-11-12T23:49:15.735Z,10.93
2017-11-12T23:51:46.542Z,4.90
2017-11-12T23:54:15.744Z,6.37
2017-11-12T23:56:45.652Z,7.43
2017-11-12T23:59:16.012Z,5.67
